createdAt,value
2023-02-14T00:01:11.795Z,71.67
2023-02-14T00:03:39.211Z,71.57
2023-02-14T00:06:11.932Z,71.61
2023-02-14T00:08:41.120Z,71.70
2023-02-14T00:11:11.060Z,71.43
2023-02-14T00:13:38.352Z,71.63
2023-02-14T00:16:05.626Z,71.79
2023-02-14T00:18:51.480Z,71.42
2023-02-14T00:21:18.457Z,71.18
2023-02-14T00:23:45.444Z,71.66
2023-02-14T00:26:15.535Z,71.39
2023-02-14T00:28:43.663Z,71.67
2023-02-14T00:31:10.979Z,71.35
2023-02-14T00:33:38.182Z,71.47
2023-02-14T00:36:07.346Z,71.38
2023-02-14T00:38:35.076Z,71.16
2023-02-14T00:41:02.559Z,71.82
2023-02-14T00:43:29.910Z,71.83
2023-02-14T00:45:58.068Z,72.03
2023-02-14T00:48:25.639Z,72.18
2023-02-14T00:50:52.632Z,71.67
2023-02-14T00:53:19.694Z,71.90
2023-02-14T00:55:47.246Z,71.96
2023-02-14T00:58:15.340Z,72.43
2023-02-14T01:00:42.439Z,71.86
2023-02-14T01:03:09.456Z,72.40
2023-02-14T01:05:36.500Z,72.42
2023-02-14T01:08:04.834Z,72.53
2023-02-14T01:10:31.887Z,72.79
2023-02-14T01:12:59.217Z,72.68
2023-02-14T01:15:27.858Z,72.41
2023-02-14T01:17:54.993Z,72.70
2023-02-14T01:20:22.150Z,72.23
2023-02-14T01:22:49.151Z,72.26
2023-02-14T01:25:16.142Z,72.54
2023-02-14T01:27:43.320Z,72.08
2023-02-14T01:30:11.473Z,72.52
2023-02-14T01:32:38.451Z,72.48
2023-02-14T01:35:05.722Z,72.29
2023-02-14T01:37:32.939Z,72.53
2023-02-14T01:40:00.513Z,72.71
2023-02-14T01:42:27.520Z,72.29
2023-02-14T01:45:01.024Z,72.49
2023-02-14T01:47:31.115Z,72.40
2023-02-14T01:50:03.240Z,72.35
2023-02-14T01:52:37.766Z,72.06
2023-02-14T01:55:13.156Z,72.08
2023-02-14T01:57:49.939Z,71.96
2023-02-14T02:00:36.632Z,71.80
2023-02-14T02:03:05.442Z,71.85
2023-02-14T02:05:32.720Z,72.16
2023-02-14T02:08:01.064Z,71.88
2023-02-14T02:10:29.122Z,71.82
2023-02-14T02:13:01.169Z,72.32
2023-02-14T02:15:32.272Z,72.01
2023-02-14T02:18:16.974Z,72.05
2023-02-14T02:21:22.203Z,71.58
2023-02-14T02:24:07.261Z,71.44
2023-02-14T02:26:53.522Z,71.83
2023-02-14T02:29:23.353Z,71.83
2023-02-14T02:32:08.408Z,71.81
2023-02-14T02:34:53.954Z,72.12
2023-02-14T02:37:39.285Z,71.68
2023-02-14T02:40:21.282Z,72.00
2023-02-14T02:43:03.454Z,72.03
2023-02-14T02:46:43.487Z,71.82
2023-02-14T02:49:53.140Z,71.73
2023-02-14T02:53:01.152Z,71.93
2023-02-14T02:55:57.290Z,71.90
2023-02-14T02:58:31.282Z,72.05
2023-02-14T03:01:02.298Z,72.14
2023-02-14T03:03:50.883Z,71.92
2023-02-14T03:06:24.560Z,71.94
2023-02-14T03:08:51.987Z,71.99
2023-02-14T03:11:19.105Z,72.23
2023-02-14T03:14:04.242Z,72.08
2023-02-14T03:16:56.045Z,72.13
2023-02-14T03:19:53.741Z,72.12
2023-02-14T03:22:58.800Z,72.62
2023-02-14T03:25:34.399Z,72.71
2023-02-14T03:28:10.433Z,73.08
2023-02-14T03:30:48.505Z,73.04
2023-02-14T03:33:35.365Z,72.94
2023-02-14T03:36:21.611Z,73.05
2023-02-14T03:39:12.212Z,72.75
2023-02-14T03:42:06.294Z,73.33
2023-02-14T03:44:36.897Z,73.10
2023-02-14T03:47:13.819Z,73.26
2023-02-14T03:49:47.047Z,73.33
2023-02-14T03:52:15.549Z,73.16
2023-02-14T03:54:43.494Z,73.16
2023-02-14T03:57:13.309Z,73.33
2023-02-14T03:59:41.654Z,73.45
2023-02-14T04:02:20.036Z,73.86
2023-02-14T04:04:50.008Z,73.73
2023-02-14T04:07:20.210Z,73.59
2023-02-14T04:09:47.970Z,73.80
2023-02-14T04:12:18.165Z,73.87
2023-02-14T04:14:46.936Z,74.11
2023-02-14T04:17:32.673Z,73.99
2023-02-14T04:19:59.689Z,74.32
2023-02-14T04:22:27.579Z,74.22
2023-02-14T04:24:54.561Z,74.12
2023-02-14T04:27:21.570Z,73.87
2023-02-14T04:29:50.249Z,73.91
2023-02-14T04:32:20.401Z,73.76
2023-02-14T04:34:48.348Z,74.12
2023-02-14T04:37:17.775Z,73.78
2023-02-14T04:39:44.780Z,73.87
2023-02-14T04:42:11.862Z,73.78
2023-02-14T04:44:39.100Z,73.91
2023-02-14T04:47:06.719Z,73.99
2023-02-14T04:49:34.369Z,73.94
2023-02-14T04:52:01.519Z,74.53
2023-02-14T04:54:29.034Z,73.81
2023-02-14T04:56:56.052Z,73.94
2023-02-14T04:59:24.828Z,73.98
2023-02-14T05:01:53.208Z,74.00
2023-02-14T05:04:20.663Z,73.83
2023-02-14T05:06:47.730Z,74.17
2023-02-14T05:09:14.823Z,73.72
2023-02-14T05:11:42.098Z,73.54
2023-02-14T05:14:09.180Z,73.73
2023-02-14T05:16:36.240Z,73.61
2023-02-14T05:19:03.317Z,73.61
2023-02-14T05:21:33.186Z,73.63
2023-02-14T05:24:01.344Z,73.59
2023-02-14T05:26:28.698Z,73.46
2023-02-14T05:28:55.986Z,73.26
2023-02-14T05:31:23.383Z,73.29
2023-02-14T05:33:50.528Z,73.39
2023-02-14T05:36:17.569Z,73.22
2023-02-14T05:38:44.668Z,72.92
2023-02-14T05:41:11.660Z,73.24
2023-02-14T05:43:38.744Z,73.23
2023-02-14T05:46:05.947Z,73.30
2023-02-14T05:48:33.580Z,73.34
2023-02-14T05:51:09.013Z,73.24
2023-02-14T05:53:36.438Z,73.05
2023-02-14T05:56:04.092Z,72.82
2023-02-14T05:58:31.557Z,72.85
2023-02-14T06:01:00.803Z,72.95
2023-02-14T06:03:28.338Z,73.19
2023-02-14T06:05:55.392Z,73.14
2023-02-14T06:08:22.652Z,72.68
2023-02-14T06:10:49.725Z,72.40
2023-02-14T06:13:16.949Z,72.96
2023-02-14T06:15:44.057Z,72.49
2023-02-14T06:18:11.154Z,72.48
2023-02-14T06:20:38.222Z,72.45
2023-02-14T06:23:05.247Z,72.21
2023-02-14T06:25:32.514Z,72.57
2023-02-14T06:28:00.126Z,72.72
2023-02-14T06:30:27.935Z,72.46
2023-02-14T06:32:55.000Z,72.48
2023-02-14T06:35:22.616Z,72.01
2023-02-14T06:37:49.740Z,72.64
2023-02-14T06:40:16.855Z,72.07
2023-02-14T06:42:44.557Z,71.88
2023-02-14T06:45:11.717Z,71.61
2023-02-14T06:47:38.771Z,71.29
2023-02-14T06:50:06.554Z,71.27
2023-02-14T06:52:34.816Z,71.52
2023-02-14T06:55:01.905Z,71.33
2023-02-14T06:57:30.979Z,71.14
2023-02-14T06:59:57.995Z,71.41
2023-02-14T07:02:25.281Z,71.55
2023-02-14T07:04:52.460Z,71.41
2023-02-14T07:07:19.473Z,71.31
2023-02-14T07:09:46.584Z,71.19
2023-02-14T07:12:13.617Z,71.21
2023-02-14T07:14:40.763Z,70.82
2023-02-14T07:17:07.767Z,70.87
2023-02-14T07:19:35.327Z,70.83
2023-02-14T07:22:02.355Z,70.86
2023-02-14T07:24:29.455Z,70.78
2023-02-14T07:26:56.575Z,70.66
2023-02-14T07:29:23.677Z,70.39
2023-02-14T07:31:50.783Z,70.99
2023-02-14T07:34:17.868Z,70.20
2023-02-14T07:36:44.853Z,70.11
2023-02-14T07:39:11.914Z,70.24
2023-02-14T07:41:38.989Z,70.65
2023-02-14T07:44:10.150Z,70.13
2023-02-14T07:46:37.313Z,69.72
2023-02-14T07:49:04.372Z,70.28
2023-02-14T07:51:31.404Z,70.49
2023-02-14T07:53:58.488Z,70.48
2023-02-14T07:56:25.597Z,69.60
2023-02-14T07:58:52.650Z,70.23
2023-02-14T08:01:19.865Z,69.56
2023-02-14T08:03:49.772Z,69.87
2023-02-14T08:06:18.439Z,69.20
2023-02-14T08:08:46.209Z,69.69
2023-02-14T08:11:33.858Z,69.08
2023-02-14T08:14:01.336Z,68.94
2023-02-14T08:16:28.457Z,68.99
2023-02-14T08:18:55.672Z,69.60
2023-02-14T08:21:22.798Z,68.72
2023-02-14T08:23:49.872Z,68.46
2023-02-14T08:26:17.432Z,68.45
2023-02-14T08:28:45.026Z,68.09
2023-02-14T08:31:12.473Z,67.84
2023-02-14T08:33:39.737Z,67.96
2023-02-14T08:36:06.902Z,68.17
2023-02-14T08:38:33.930Z,68.12
2023-02-14T08:41:05.043Z,68.97
2023-02-14T08:43:34.495Z,69.11
2023-02-14T08:46:02.124Z,69.42
2023-02-14T08:48:29.467Z,69.54
2023-02-14T08:50:56.496Z,70.03
2023-02-14T08:53:24.254Z,70.09
2023-02-14T08:55:51.358Z,69.87
2023-02-14T08:58:18.625Z,70.57
2023-02-14T09:00:45.694Z,70.83
2023-02-14T09:03:12.765Z,71.00
2023-02-14T09:05:39.741Z,71.22
2023-02-14T09:08:07.916Z,71.07
2023-02-14T09:10:34.956Z,71.43
2023-02-14T09:13:02.036Z,70.72
2023-02-14T09:15:29.120Z,70.31
2023-02-14T09:17:56.250Z,70.88
2023-02-14T09:20:23.578Z,70.76
2023-02-14T09:22:50.869Z,71.19
2023-02-14T09:25:18.012Z,70.93
2023-02-14T09:27:45.036Z,71.24
2023-02-14T09:30:12.977Z,71.05
2023-02-14T09:32:40.110Z,70.56
2023-02-14T09:35:07.546Z,70.50
2023-02-14T09:37:34.532Z,70.02
2023-02-14T09:40:01.489Z,69.93
2023-02-14T09:42:51.803Z,70.94
2023-02-14T09:45:25.382Z,70.14
2023-02-14T09:48:02.809Z,70.29
2023-02-14T09:50:34.714Z,69.76
2023-02-14T09:53:23.430Z,69.50
2023-02-14T09:56:42.772Z,68.35
2023-02-14T09:59:34.989Z,68.38
2023-02-14T10:02:36.189Z,68.58
2023-02-14T10:05:44.435Z,66.64
2023-02-14T10:08:20.394Z,67.41
2023-02-14T10:11:00.663Z,68.06
2023-02-14T10:13:46.467Z,67.65
2023-02-14T10:16:27.198Z,67.28
2023-02-14T10:18:54.373Z,67.76
2023-02-14T10:21:42.854Z,67.79
2023-02-14T10:24:35.736Z,67.54
2023-02-14T10:27:30.324Z,67.44
2023-02-14T10:29:57.497Z,67.45
2023-02-14T10:33:11.088Z,67.23
2023-02-14T10:35:44.822Z,67.99
2023-02-14T10:38:23.719Z,67.44
2023-02-14T10:41:23.052Z,66.70
2023-02-14T10:43:54.975Z,67.48
2023-02-14T10:46:33.898Z,66.50
2023-02-14T10:49:21.315Z,66.83
2023-02-14T10:51:58.566Z,66.23
2023-02-14T10:54:32.682Z,65.83
2023-02-14T10:56:59.716Z,65.60
2023-02-14T10:59:29.832Z,66.14
2023-02-14T11:01:59.515Z,65.43
2023-02-14T11:04:28.459Z,65.62
2023-02-14T11:06:55.541Z,65.40
2023-02-14T11:09:22.617Z,65.41
2023-02-14T11:12:00.632Z,64.20
2023-02-14T11:14:37.023Z,65.32
2023-02-14T11:17:32.541Z,64.57
2023-02-14T11:20:03.197Z,64.94
2023-02-14T11:22:33.916Z,65.16
2023-02-14T11:25:19.472Z,64.51
2023-02-14T11:27:50.295Z,64.60
2023-02-14T11:30:30.327Z,64.35
2023-02-14T11:32:57.790Z,64.42
2023-02-14T11:35:33.829Z,64.69
2023-02-14T11:38:03.289Z,64.55
2023-02-14T11:40:33.625Z,64.34
2023-02-14T11:43:15.371Z,63.95
2023-02-14T11:45:45.702Z,63.72
2023-02-14T11:48:31.480Z,63.95
2023-02-14T11:51:11.137Z,64.07
2023-02-14T11:53:46.063Z,64.74
2023-02-14T11:56:14.476Z,64.38
2023-02-14T11:58:58.235Z,63.55
2023-02-14T12:01:30.132Z,62.80
2023-02-14T12:04:05.307Z,62.08
2023-02-14T12:06:34.869Z,62.28
2023-02-14T12:09:24.654Z,61.34
2023-02-14T12:12:00.693Z,62.04
2023-02-14T12:14:33.736Z,61.72
2023-02-14T12:17:23.658Z,61.93
2023-02-14T12:20:17.362Z,60.93
2023-02-14T12:22:51.943Z,61.04
2023-02-14T12:25:25.370Z,61.00
2023-02-14T12:27:58.957Z,61.47
2023-02-14T12:30:30.600Z,61.65
2023-02-14T12:32:58.064Z,61.83
2023-02-14T12:35:47.076Z,61.37
2023-02-14T12:38:41.444Z,61.55
2023-02-14T12:41:25.526Z,62.26
2023-02-14T12:43:56.019Z,62.64
2023-02-14T12:46:41.122Z,61.66
2023-02-14T12:49:32.818Z,62.65
2023-02-14T12:52:21.557Z,62.63
2023-02-14T12:55:30.019Z,61.73
2023-02-14T12:58:19.246Z,62.50
2023-02-14T13:01:09.110Z,62.95
2023-02-14T13:03:59.174Z,63.15
2023-02-14T13:06:38.950Z,62.40
2023-02-14T13:09:27.624Z,63.22
2023-02-14T13:12:13.344Z,62.50
2023-02-14T13:15:09.556Z,62.58
2023-02-14T13:17:39.986Z,63.18
2023-02-14T13:20:33.384Z,62.91
2023-02-14T13:23:05.441Z,62.70
2023-02-14T13:25:42.986Z,63.08
2023-02-14T13:28:13.301Z,62.81
2023-02-14T13:30:43.240Z,63.10
2023-02-14T13:33:18.607Z,62.83
2023-02-14T13:35:46.179Z,63.24
2023-02-14T13:38:16.448Z,63.34
2023-02-14T13:40:43.767Z,63.26
2023-02-14T13:43:10.850Z,63.44
2023-02-14T13:45:40.760Z,63.23
2023-02-14T13:48:19.177Z,63.20
2023-02-14T13:50:49.043Z,63.48
2023-02-14T13:53:44.115Z,63.16
2023-02-14T13:56:16.816Z,63.20
2023-02-14T13:58:55.285Z,63.47
2023-02-14T14:01:48.241Z,62.93
2023-02-14T14:04:31.980Z,63.48
2023-02-14T14:07:05.258Z,62.97
2023-02-14T14:09:41.358Z,63.36
2023-02-14T14:12:26.513Z,63.59
2023-02-14T14:15:05.644Z,63.33
2023-02-14T14:18:15.840Z,63.26
2023-02-14T14:20:52.704Z,63.37
2023-02-14T14:23:35.497Z,63.57
2023-02-14T14:26:03.808Z,63.76
2023-02-14T14:28:33.222Z,63.70
2023-02-14T14:31:00.476Z,64.10
2023-02-14T14:33:37.848Z,63.61
2023-02-14T14:36:08.987Z,63.84
2023-02-14T14:38:48.216Z,63.96
2023-02-14T14:41:15.321Z,63.83
2023-02-14T14:43:42.852Z,64.09
2023-02-14T14:46:13.468Z,64.31
2023-02-14T14:48:47.191Z,64.10
2023-02-14T14:51:35.647Z,64.17
2023-02-14T14:54:07.155Z,64.32
2023-02-14T14:56:39.851Z,64.46
2023-02-14T14:59:31.342Z,64.42
2023-02-14T15:01:58.775Z,64.37
2023-02-14T15:04:35.323Z,64.46
2023-02-14T15:07:24.181Z,64.94
2023-02-14T15:09:51.467Z,64.71
2023-02-14T15:12:41.468Z,64.36
2023-02-14T15:15:12.035Z,64.87
2023-02-14T15:17:42.166Z,64.90
2023-02-14T15:20:22.215Z,65.01
2023-02-14T15:22:52.912Z,65.02
2023-02-14T15:25:27.066Z,65.22
2023-02-14T15:27:54.296Z,64.79
2023-02-14T15:30:26.786Z,64.89
2023-02-14T15:32:54.440Z,65.26
2023-02-14T15:35:28.030Z,64.99
2023-02-14T15:37:57.364Z,64.74
2023-02-14T15:40:27.668Z,65.09
2023-02-14T15:42:59.256Z,64.93
2023-02-14T15:45:27.680Z,65.11
2023-02-14T15:47:59.043Z,64.96
2023-02-14T15:50:30.340Z,64.94
2023-02-14T15:53:05.121Z,65.60
2023-02-14T15:55:35.993Z,65.04
2023-02-14T15:58:07.331Z,64.84
2023-02-14T16:00:35.713Z,65.35
2023-02-14T16:03:07.506Z,65.03
2023-02-14T16:05:34.950Z,64.89
2023-02-14T16:08:06.312Z,64.92
2023-02-14T16:10:36.194Z,64.67
2023-02-14T16:13:19.109Z,64.56
2023-02-14T16:16:06.941Z,64.62
2023-02-14T16:18:42.957Z,64.72
2023-02-14T16:21:21.680Z,64.66
2023-02-14T16:24:11.546Z,64.71
2023-02-14T16:26:40.756Z,65.01
2023-02-14T16:29:10.705Z,65.05
2023-02-14T16:32:15.046Z,64.94
2023-02-14T16:34:43.725Z,64.71
2023-02-14T16:37:31.711Z,64.97
2023-02-14T16:40:00.887Z,64.90
2023-02-14T16:42:28.290Z,65.36
2023-02-14T16:44:55.409Z,64.79
2023-02-14T16:47:22.586Z,64.77
2023-02-14T16:49:50.811Z,65.18
2023-02-14T16:52:23.954Z,64.71
2023-02-14T16:54:52.084Z,65.02
2023-02-14T16:57:28.236Z,65.18
2023-02-14T16:59:56.893Z,64.71
2023-02-14T17:02:28.519Z,65.19
2023-02-14T17:04:55.941Z,64.88
2023-02-14T17:07:23.546Z,64.64
2023-02-14T17:09:55.867Z,64.71
2023-02-14T17:12:26.954Z,65.06
2023-02-14T17:14:56.499Z,65.38
2023-02-14T17:17:23.612Z,64.42
2023-02-14T17:19:52.812Z,64.58
2023-02-14T17:22:20.695Z,65.09
2023-02-14T17:24:47.753Z,65.06
2023-02-14T17:27:14.895Z,65.02
2023-02-14T17:29:41.988Z,64.45
2023-02-14T17:32:13.901Z,64.50
2023-02-14T17:34:41.319Z,64.86
2023-02-14T17:37:08.467Z,65.22
2023-02-14T17:39:35.475Z,65.10
2023-02-14T17:42:02.598Z,64.56
2023-02-14T17:44:32.596Z,64.38
2023-02-14T17:46:59.733Z,64.41
2023-02-14T17:49:26.946Z,64.97
2023-02-14T17:51:54.846Z,64.87
2023-02-14T17:54:21.913Z,65.08
2023-02-14T17:56:48.960Z,64.81
2023-02-14T17:59:16.446Z,65.08
2023-02-14T18:01:43.842Z,64.68
2023-02-14T18:04:10.911Z,65.42
2023-02-14T18:06:38.000Z,65.06
2023-02-14T18:09:06.154Z,65.36
2023-02-14T18:11:33.302Z,65.31
2023-02-14T18:14:01.923Z,65.66
2023-02-14T18:16:29.329Z,65.43
2023-02-14T18:18:56.568Z,65.48
2023-02-14T18:21:24.731Z,65.24
2023-02-14T18:23:53.430Z,65.38
2023-02-14T18:26:20.485Z,65.50
2023-02-14T18:28:47.559Z,65.82
2023-02-14T18:31:18.380Z,65.77
2023-02-14T18:33:48.945Z,66.19
2023-02-14T18:36:19.418Z,65.91
2023-02-14T18:38:48.507Z,65.70
2023-02-14T18:41:18.022Z,65.98
2023-02-14T18:43:45.265Z,66.09
2023-02-14T18:46:17.894Z,66.33
2023-02-14T18:48:45.851Z,66.36
2023-02-14T18:51:23.711Z,66.51
2023-02-14T18:53:52.390Z,66.50
2023-02-14T18:56:22.733Z,66.29
2023-02-14T18:58:52.915Z,66.35
2023-02-14T19:01:23.850Z,66.22
2023-02-14T19:03:53.020Z,66.33
2023-02-14T19:06:20.845Z,66.42
2023-02-14T19:08:48.477Z,66.52
2023-02-14T19:11:23.862Z,66.51
2023-02-14T19:13:53.590Z,66.83
2023-02-14T19:16:24.134Z,66.28
2023-02-14T19:18:53.359Z,66.56
2023-02-14T19:21:23.253Z,66.27
2023-02-14T19:23:52.234Z,66.39
2023-02-14T19:26:20.587Z,65.93
2023-02-14T19:28:49.701Z,65.78
2023-02-14T19:31:17.078Z,65.59
2023-02-14T19:33:46.397Z,65.38
2023-02-14T19:36:16.588Z,65.45
2023-02-14T19:38:46.078Z,65.34
2023-02-14T19:41:16.829Z,65.41
2023-02-14T19:43:48.009Z,65.59
2023-02-14T19:46:17.752Z,65.05
2023-02-14T19:48:45.024Z,65.29
2023-02-14T19:51:21.826Z,64.64
2023-02-14T19:53:50.161Z,64.93
2023-02-14T19:56:22.465Z,64.77
2023-02-14T19:58:51.074Z,64.95
2023-02-14T20:01:26.167Z,64.71
2023-02-14T20:03:53.794Z,64.87
2023-02-14T20:06:25.477Z,64.47
2023-02-14T20:08:53.039Z,64.66
2023-02-14T20:11:50.142Z,64.56
2023-02-14T20:14:19.620Z,64.55
2023-02-14T20:16:47.915Z,64.55
2023-02-14T20:19:18.266Z,64.80
2023-02-14T20:21:48.057Z,64.41
2023-02-14T20:24:17.709Z,64.57
2023-02-14T20:26:45.842Z,64.92
2023-02-14T20:29:13.356Z,64.64
2023-02-14T20:31:43.227Z,64.49
2023-02-14T20:34:11.266Z,64.55
2023-02-14T20:36:38.647Z,64.21
2023-02-14T20:39:07.428Z,64.22
2023-02-14T20:41:35.246Z,64.25
2023-02-14T20:44:05.139Z,64.48
2023-02-14T20:46:32.986Z,64.48
2023-02-14T20:49:00.119Z,64.02
2023-02-14T20:51:27.583Z,64.09
2023-02-14T20:53:55.062Z,64.02
2023-02-14T20:56:23.719Z,64.21
2023-02-14T20:58:51.112Z,63.77
2023-02-14T21:01:23.478Z,63.57
2023-02-14T21:03:52.471Z,63.70
2023-02-14T21:06:22.136Z,63.59
2023-02-14T21:08:49.189Z,63.44
2023-02-14T21:11:18.129Z,63.44
2023-02-14T21:13:45.209Z,63.55
2023-02-14T21:16:15.624Z,63.81
2023-02-14T21:18:48.920Z,63.44
2023-02-14T21:21:20.459Z,63.40
2023-02-14T21:23:51.324Z,63.29
2023-02-14T21:26:20.135Z,63.87
2023-02-14T21:28:47.947Z,63.83
2023-02-14T21:31:18.195Z,63.80
2023-02-14T21:33:45.277Z,64.22
2023-02-14T21:36:14.664Z,64.18
2023-02-14T21:38:42.100Z,63.57
2023-02-14T21:41:14.309Z,63.91
2023-02-14T21:43:43.385Z,63.48
2023-02-14T21:46:13.110Z,63.68
2023-02-14T21:48:59.344Z,63.45
2023-02-14T21:51:27.688Z,63.31
2023-02-14T21:53:55.778Z,63.50
2023-02-14T21:56:23.962Z,63.52
2023-02-14T21:58:52.870Z,63.50
2023-02-14T22:01:23.167Z,63.67
2023-02-14T22:03:50.704Z,63.69
2023-02-14T22:06:18.156Z,63.07
2023-02-14T22:08:45.195Z,63.51
2023-02-14T22:11:15.713Z,63.68
2023-02-14T22:13:43.051Z,63.53
2023-02-14T22:16:13.258Z,63.72
2023-02-14T22:18:42.936Z,63.47
2023-02-14T22:21:14.221Z,63.47
2023-02-14T22:23:44.841Z,63.78
2023-02-14T22:26:20.380Z,63.80
2023-02-14T22:28:48.866Z,63.71
2023-02-14T22:31:17.780Z,63.51
2023-02-14T22:33:45.861Z,63.79
2023-02-14T22:36:12.883Z,63.54
2023-02-14T22:38:39.872Z,63.64
2023-02-14T22:41:11.358Z,63.85
2023-02-14T22:43:39.218Z,63.81
2023-02-14T22:46:12.167Z,63.79
2023-02-14T22:48:40.374Z,63.26
2023-02-14T22:51:17.309Z,63.57
2023-02-14T22:53:44.388Z,63.33
2023-02-14T22:56:13.770Z,64.12
2023-02-14T22:58:40.967Z,63.92
2023-02-14T23:01:13.967Z,63.97
2023-02-14T23:03:41.065Z,63.61
2023-02-14T23:06:08.158Z,64.03
2023-02-14T23:08:35.229Z,64.15
2023-02-14T23:11:14.004Z,64.00
2023-02-14T23:14:00.975Z,64.20
2023-02-14T23:16:46.650Z,63.80
2023-02-14T23:19:37.912Z,63.88
2023-02-14T23:22:09.860Z,64.25
2023-02-14T23:24:37.144Z,64.20
2023-02-14T23:27:05.051Z,63.59
2023-02-14T23:29:32.492Z,64.20
2023-02-14T23:32:00.061Z,63.93
2023-02-14T23:34:29.476Z,64.02
2023-02-14T23:36:56.681Z,64.16
2023-02-14T23:39:23.794Z,64.03
2023-02-14T23:41:50.943Z,63.81
2023-02-14T23:44:24.206Z,64.35
2023-02-14T23:46:53.877Z,64.27
2023-02-14T23:49:21.418Z,64.42
2023-02-14T23:51:50.192Z,64.25
2023-02-14T23:54:17.999Z,64.11
2023-02-14T23:56:45.871Z,64.35
2023-02-14T23:59:14.621Z,64.80
